createdAt,value
2018-08-28T00:00:25.863Z,14.75
2018-08-28T00:01:29.290Z,14.73
2018-08-28T00:02:34.028Z,14.77
2018-08-28T00:03:37.314Z,14.80
2018-08-28T00:04:40.177Z,14.78
2018-08-28T00:05:45.823Z,14.77
2018-08-28T00:06:48.729Z,14.76
2018-08-28T00:07:52.266Z,14.76
2018-08-28T00:08:55.138Z,14.73
2018-08-28T00:09:58.378Z,14.73
2018-08-28T00:11:01.246Z,14.74
2018-08-28T00:12:05.897Z,14.74
2018-08-28T00:13:08.826Z,14.73
2018-08-28T00:14:11.825Z,14.71
2018-08-28T00:15:14.764Z,14.71
2018-08-28T00:16:19.714Z,14.67
2018-08-28T00:17:22.615Z,14.63
2018-08-28T00:18:25.496Z,14.62
2018-08-28T00:19:28.349Z,14.63
2018-08-28T00:20:31.323Z,14.67
2018-08-28T00:21:34.219Z,14.69
2018-08-28T00:22:37.715Z,14.65
2018-08-28T00:23:40.975Z,14.61
2018-08-28T00:24:43.953Z,14.56
2018-08-28T00:25:46.858Z,14.58
2018-08-28T00:26:49.802Z,14.61
2018-08-28T00:27:52.705Z,14.58
2018-08-28T00:28:56.107Z,14.56
2018-08-28T00:29:59.122Z,14.59
2018-08-28T00:31:02.030Z,14.55
2018-08-28T00:32:04.919Z,14.55
2018-08-28T00:33:07.834Z,14.50
2018-08-28T00:34:10.809Z,14.51
2018-08-28T00:35:14.730Z,14.53
2018-08-28T00:36:17.905Z,14.52
2018-08-28T00:37:20.777Z,14.50
2018-08-28T00:38:23.658Z,14.49
2018-08-28T00:39:26.559Z,14.48
2018-08-28T00:40:29.469Z,14.49
2018-08-28T00:41:32.819Z,14.53
2018-08-28T00:42:35.683Z,14.50
2018-08-28T00:43:38.579Z,14.51
2018-08-28T00:44:41.477Z,14.54
2018-08-28T00:45:44.411Z,14.57
2018-08-28T00:46:47.318Z,14.59
2018-08-28T00:47:50.678Z,14.58
2018-08-28T00:48:54.481Z,14.49
2018-08-28T00:49:58.327Z,14.47
2018-08-28T00:51:01.229Z,14.45
2018-08-28T00:52:04.606Z,14.50
2018-08-28T00:53:07.498Z,14.54
2018-08-28T00:54:10.455Z,14.52
2018-08-28T00:55:13.346Z,14.49
2018-08-28T00:56:16.265Z,14.43
2018-08-28T00:57:19.820Z,14.44
2018-08-28T00:58:23.510Z,14.44
2018-08-28T00:59:26.510Z,14.44
2018-08-28T01:00:29.438Z,14.44
2018-08-28T01:01:33.515Z,14.31
2018-08-28T01:02:36.398Z,14.15
2018-08-28T01:03:39.277Z,14.03
2018-08-28T01:04:42.476Z,13.91
2018-08-28T01:05:45.729Z,13.93
2018-08-28T01:06:49.386Z,13.96
2018-08-28T01:07:52.279Z,13.99
2018-08-28T01:08:55.152Z,14.05
2018-08-28T01:09:58.066Z,14.09
2018-08-28T01:11:01.588Z,14.13
2018-08-28T01:12:04.470Z,14.17
2018-08-28T01:13:07.352Z,14.16
2018-08-28T01:14:10.236Z,14.15
2018-08-28T01:15:13.111Z,14.10
2018-08-28T01:16:16.062Z,14.04
2018-08-28T01:17:19.379Z,13.94
2018-08-28T01:18:22.278Z,13.82
2018-08-28T01:19:25.150Z,13.70
2018-08-28T01:20:28.002Z,13.60
2018-08-28T01:21:30.877Z,13.53
2018-08-28T01:22:33.778Z,13.50
2018-08-28T01:23:37.959Z,13.45
2018-08-28T01:24:41.494Z,13.38
2018-08-28T01:25:44.383Z,13.35
2018-08-28T01:26:47.238Z,13.36
2018-08-28T01:27:50.113Z,13.36
2018-08-28T01:28:53.304Z,13.33
2018-08-28T01:29:56.719Z,13.34
2018-08-28T01:30:59.697Z,13.39
2018-08-28T01:32:02.732Z,13.43
2018-08-28T01:33:06.624Z,13.42
2018-08-28T01:34:10.807Z,13.39
2018-08-28T01:35:13.705Z,13.27
2018-08-28T01:36:17.232Z,13.20
2018-08-28T01:37:20.110Z,13.17
2018-08-28T01:38:23.728Z,13.15
2018-08-28T01:39:31.831Z,13.17
2018-08-28T01:40:36.391Z,13.12
2018-08-28T01:41:40.129Z,13.09
2018-08-28T01:42:43.531Z,12.99
2018-08-28T01:43:46.409Z,12.97
2018-08-28T01:44:49.453Z,12.99
2018-08-28T01:45:52.685Z,12.97
2018-08-28T01:46:55.670Z,12.96
2018-08-28T01:47:58.576Z,12.91
2018-08-28T01:49:01.862Z,12.83
2018-08-28T01:50:05.535Z,12.78
2018-08-28T01:51:08.471Z,12.80
2018-08-28T01:52:11.380Z,12.79
2018-08-28T01:53:14.367Z,12.76
2018-08-28T01:54:18.153Z,12.78
2018-08-28T01:55:21.482Z,12.82
2018-08-28T01:56:24.411Z,12.75
2018-08-28T01:57:27.280Z,12.76
2018-08-28T01:58:31.071Z,12.84
2018-08-28T01:59:33.953Z,12.92
2018-08-28T02:00:36.822Z,12.94
2018-08-28T02:01:41.002Z,12.82
2018-08-28T02:02:43.903Z,12.76
2018-08-28T02:03:46.775Z,12.71
2018-08-28T02:04:49.650Z,12.62
2018-08-28T02:05:52.546Z,12.52
2018-08-28T02:06:55.477Z,12.48
2018-08-28T02:07:58.697Z,12.53
2018-08-28T02:09:01.631Z,12.46
2018-08-28T02:10:04.537Z,12.57
2018-08-28T02:11:07.413Z,12.65
2018-08-28T02:12:10.299Z,12.68
2018-08-28T02:13:13.241Z,12.70
2018-08-28T02:14:16.609Z,12.75
2018-08-28T02:15:19.530Z,12.69
2018-08-28T02:16:22.405Z,12.70
2018-08-28T02:17:25.303Z,12.71
2018-08-28T02:18:28.207Z,12.71
2018-08-28T02:19:31.086Z,12.68
2018-08-28T02:20:34.442Z,12.62
2018-08-28T02:21:37.325Z,12.62
2018-08-28T02:22:40.199Z,12.65
2018-08-28T02:23:43.057Z,12.67
2018-08-28T02:24:45.953Z,12.64
2018-08-28T02:25:48.857Z,12.61
2018-08-28T02:26:52.255Z,12.62
2018-08-28T02:27:55.129Z,12.62
2018-08-28T02:28:58.033Z,12.63
2018-08-28T02:30:00.949Z,12.67
2018-08-28T02:31:03.938Z,12.63
2018-08-28T02:32:07.312Z,12.52
2018-08-28T02:33:10.583Z,12.41
2018-08-28T02:34:13.543Z,12.46
2018-08-28T02:35:16.450Z,12.46
2018-08-28T02:36:20.728Z,12.47
2018-08-28T02:37:23.633Z,12.52
2018-08-28T02:38:26.529Z,12.59
2018-08-28T02:39:29.907Z,12.64
2018-08-28T02:40:32.853Z,12.62
2018-08-28T02:41:35.732Z,12.27
2018-08-28T02:42:38.605Z,12.26
2018-08-28T02:43:41.527Z,12.21
2018-08-28T02:44:44.488Z,12.20
2018-08-28T02:45:47.737Z,12.18
2018-08-28T02:46:50.594Z,12.28
2018-08-28T02:47:53.488Z,12.31
2018-08-28T02:48:56.405Z,12.26
2018-08-28T02:49:59.286Z,12.12
2018-08-28T02:51:02.174Z,11.95
2018-08-28T02:52:05.709Z,11.92
2018-08-28T02:53:08.617Z,11.99
2018-08-28T02:54:11.474Z,12.10
2018-08-28T02:55:14.351Z,12.13
2018-08-28T02:56:17.322Z,12.04
2018-08-28T02:57:20.237Z,11.95
2018-08-28T02:58:23.661Z,12.04
2018-08-28T02:59:26.567Z,12.09
2018-08-28T03:00:29.520Z,12.06
2018-08-28T03:01:32.433Z,12.02
2018-08-28T03:02:35.361Z,12.00
2018-08-28T03:03:38.225Z,12.00
2018-08-28T03:04:41.458Z,12.03
2018-08-28T03:05:44.346Z,12.10
2018-08-28T03:06:47.221Z,12.10
2018-08-28T03:07:50.101Z,12.10
2018-08-28T03:08:52.993Z,12.00
2018-08-28T03:09:55.893Z,11.94
2018-08-28T03:10:59.162Z,11.92
2018-08-28T03:12:02.062Z,11.84
2018-08-28T03:13:04.924Z,11.79
2018-08-28T03:14:07.862Z,11.70
2018-08-28T03:15:10.805Z,11.71
2018-08-28T03:16:13.687Z,11.69
2018-08-28T03:17:16.901Z,11.67
2018-08-28T03:18:19.790Z,11.65
2018-08-28T03:19:22.685Z,11.59
2018-08-28T03:20:25.574Z,11.64
2018-08-28T03:21:28.536Z,11.68
2018-08-28T03:22:33.910Z,11.69
2018-08-28T03:23:37.312Z,11.70
2018-08-28T03:24:40.219Z,11.74
2018-08-28T03:25:43.126Z,11.73
2018-08-28T03:26:46.045Z,11.75
2018-08-28T03:27:49.831Z,11.80
2018-08-28T03:28:52.769Z,11.73
2018-08-28T03:29:55.959Z,11.59
2018-08-28T03:30:58.866Z,11.54
2018-08-28T03:32:01.739Z,11.53
2018-08-28T03:33:04.686Z,11.43
2018-08-28T03:34:07.657Z,11.39
2018-08-28T03:35:10.534Z,11.28
2018-08-28T03:36:13.734Z,11.23
2018-08-28T03:37:16.639Z,11.18
2018-08-28T03:38:19.530Z,11.23
2018-08-28T03:39:22.431Z,11.32
2018-08-28T03:40:26.120Z,11.35
2018-08-28T03:41:29.567Z,11.26
2018-08-28T03:42:33.600Z,11.20
2018-08-28T03:43:36.529Z,11.15
2018-08-28T03:44:39.529Z,11.18
2018-08-28T03:45:42.424Z,11.19
2018-08-28T03:46:45.306Z,11.17
2018-08-28T03:47:48.192Z,11.09
2018-08-28T03:48:51.486Z,11.15
2018-08-28T03:49:54.370Z,11.13
2018-08-28T03:50:57.298Z,11.09
2018-08-28T03:52:00.221Z,11.08
2018-08-28T03:53:03.106Z,11.05
2018-08-28T03:54:05.981Z,11.02
2018-08-28T03:55:09.237Z,11.04
2018-08-28T03:56:12.134Z,11.07
2018-08-28T03:57:16.545Z,11.02
2018-08-28T03:58:21.929Z,11.04
2018-08-28T03:59:24.852Z,11.08
2018-08-28T04:00:27.779Z,11.11
2018-08-28T04:01:30.995Z,11.04
2018-08-28T04:02:34.982Z,10.96
2018-08-28T04:03:37.933Z,10.90
2018-08-28T04:04:40.885Z,10.87
2018-08-28T04:05:43.798Z,10.89
2018-08-28T04:06:46.736Z,10.88
2018-08-28T04:07:50.088Z,10.92
2018-08-28T04:08:52.950Z,10.94
2018-08-28T04:09:55.833Z,10.93
2018-08-28T04:10:58.732Z,10.91
2018-08-28T04:12:01.656Z,10.86
2018-08-28T04:13:04.517Z,10.85
2018-08-28T04:14:07.752Z,10.88
2018-08-28T04:15:10.751Z,10.91
2018-08-28T04:16:13.650Z,10.95
2018-08-28T04:17:16.547Z,10.88
2018-08-28T04:18:19.475Z,10.84
2018-08-28T04:19:22.378Z,10.77
2018-08-28T04:20:25.569Z,10.77
2018-08-28T04:21:28.466Z,10.79
2018-08-28T04:22:31.433Z,10.88
2018-08-28T04:23:34.426Z,10.94
2018-08-28T04:24:37.299Z,10.90
2018-08-28T04:25:40.165Z,10.87
2018-08-28T04:26:43.420Z,10.83
2018-08-28T04:27:46.807Z,10.81
2018-08-28T04:28:49.674Z,10.79
2018-08-28T04:29:52.547Z,10.72
2018-08-28T04:30:55.517Z,10.75
2018-08-28T04:31:58.451Z,10.77
2018-08-28T04:33:01.688Z,10.73
2018-08-28T04:34:04.584Z,10.74
2018-08-28T04:35:07.491Z,10.72
2018-08-28T04:36:11.110Z,10.72
2018-08-28T04:37:14.053Z,10.71
2018-08-28T04:38:16.950Z,10.72
2018-08-28T04:39:20.468Z,10.68
2018-08-28T04:40:23.347Z,10.63
2018-08-28T04:41:27.862Z,10.61
2018-08-28T04:42:31.354Z,10.60
2018-08-28T04:43:34.253Z,10.61
2018-08-28T04:44:37.173Z,10.60
2018-08-28T04:45:40.669Z,10.60
2018-08-28T04:46:43.566Z,10.57
2018-08-28T04:47:46.714Z,10.61
2018-08-28T04:48:49.651Z,10.55
2018-08-28T04:49:54.160Z,10.54
2018-08-28T04:50:57.030Z,10.45
2018-08-28T04:52:00.249Z,10.41
2018-08-28T04:53:03.182Z,10.36
2018-08-28T04:54:06.083Z,10.37
2018-08-28T04:55:08.974Z,10.40
2018-08-28T04:56:11.893Z,10.46
2018-08-28T04:57:14.814Z,10.40
2018-08-28T04:58:18.110Z,10.44
2018-08-28T04:59:21.033Z,10.44
2018-08-28T05:00:23.907Z,10.44
2018-08-28T05:01:26.794Z,10.43
2018-08-28T05:02:34.916Z,10.39
2018-08-28T05:03:37.815Z,10.38
2018-08-28T05:04:41.077Z,10.38
2018-08-28T05:05:43.956Z,10.45
2018-08-28T05:06:46.812Z,10.50
2018-08-28T05:07:49.720Z,10.47
2018-08-28T05:08:52.675Z,10.46
2018-08-28T05:09:55.539Z,10.50
2018-08-28T05:10:58.852Z,10.43
2018-08-28T05:12:01.710Z,10.40
2018-08-28T05:13:05.700Z,10.45
2018-08-28T05:14:08.636Z,10.42
2018-08-28T05:15:12.735Z,10.48
2018-08-28T05:16:15.634Z,10.52
2018-08-28T05:17:21.022Z,10.52
2018-08-28T05:18:23.891Z,10.51
2018-08-28T05:19:27.777Z,10.49
2018-08-28T05:20:30.709Z,10.49
2018-08-28T05:21:33.785Z,10.48
2018-08-28T05:22:36.664Z,10.54
2018-08-28T05:23:40.052Z,10.57
2018-08-28T05:24:44.510Z,10.64
2018-08-28T05:25:47.386Z,10.62
2018-08-28T05:26:51.239Z,10.62
2018-08-28T05:27:54.215Z,10.67
2018-08-28T05:28:58.139Z,10.59
2018-08-28T05:30:01.640Z,10.59
2018-08-28T05:33:29.870Z,10.63
2018-08-28T05:34:33.222Z,10.68
2018-08-28T05:35:36.431Z,10.74
2018-08-28T05:36:40.379Z,10.78
2018-08-28T05:37:43.305Z,10.80
2018-08-28T05:38:46.276Z,10.82
2018-08-28T05:39:49.198Z,10.87
2018-08-28T05:40:52.109Z,10.94
2018-08-28T05:41:55.029Z,10.98
2018-08-28T05:42:58.197Z,11.06
2018-08-28T05:44:01.148Z,11.06
2018-08-28T05:45:04.068Z,11.10
2018-08-28T05:46:07.095Z,11.14
2018-08-28T05:47:10.026Z,11.17
2018-08-28T05:48:13.851Z,11.17
2018-08-28T05:49:17.099Z,11.25
2018-08-28T05:50:20.029Z,11.31
2018-08-28T05:51:23.119Z,11.34
2018-08-28T05:52:26.014Z,11.32
2018-08-28T05:53:28.900Z,11.38
2018-08-28T05:54:31.777Z,11.44
2018-08-28T05:55:36.422Z,11.50
2018-08-28T05:56:39.310Z,11.62
2018-08-28T05:57:42.212Z,11.65
2018-08-28T05:58:45.301Z,11.79
2018-08-28T05:59:48.208Z,11.91
2018-08-28T06:00:51.149Z,11.88
2018-08-28T06:01:55.317Z,11.93
2018-08-28T06:02:58.309Z,12.01
2018-08-28T06:04:01.254Z,12.15
2018-08-28T06:05:05.228Z,12.14
2018-08-28T06:06:09.136Z,12.06
2018-08-28T06:07:12.524Z,12.07
2018-08-28T06:08:16.418Z,12.18
2018-08-28T06:09:19.299Z,12.29
2018-08-28T06:10:22.245Z,12.27
2018-08-28T06:11:25.740Z,12.26
2018-08-28T06:12:28.648Z,12.25
2018-08-28T06:13:31.666Z,12.37
2018-08-28T06:14:35.066Z,12.43
2018-08-28T06:15:38.603Z,12.59
2018-08-28T06:16:42.488Z,12.72
2018-08-28T06:17:45.375Z,12.75
2018-08-28T06:18:48.366Z,12.82
2018-08-28T06:19:51.658Z,13.00
2018-08-28T06:20:55.686Z,13.13
2018-08-28T06:21:58.676Z,13.29
2018-08-28T06:23:01.648Z,13.51
2018-08-28T06:24:04.560Z,13.77
2018-08-28T06:25:07.638Z,14.07
2018-08-28T06:26:11.044Z,14.27
2018-08-28T06:27:15.201Z,14.41
2018-08-28T06:28:18.122Z,14.60
2018-08-28T06:29:22.630Z,14.67
2018-08-28T06:30:25.659Z,14.75
2018-08-28T06:31:32.515Z,15.02
2018-08-28T06:32:36.234Z,15.28
2018-08-28T06:33:39.135Z,15.34
2018-08-28T06:34:42.119Z,15.52
2018-08-28T06:35:45.072Z,15.50
2018-08-28T06:36:49.172Z,15.36
2018-08-28T06:37:52.070Z,15.38
2018-08-28T06:38:55.481Z,15.54
2018-08-28T06:39:58.372Z,15.58
2018-08-28T06:41:04.255Z,15.66
2018-08-28T06:42:07.375Z,15.82
2018-08-28T06:43:10.389Z,16.07
2018-08-28T06:44:13.301Z,16.38
2018-08-28T06:45:16.631Z,16.37
2018-08-28T06:46:19.508Z,16.10
2018-08-28T06:47:22.415Z,16.17
2018-08-28T06:48:25.307Z,16.17
2018-08-28T06:49:28.588Z,15.91
2018-08-28T06:50:31.529Z,15.58
2018-08-28T06:51:34.984Z,15.51
2018-08-28T06:52:38.175Z,15.58
2018-08-28T06:53:42.550Z,15.68
2018-08-28T06:54:45.681Z,15.74
2018-08-28T06:55:48.770Z,15.83
2018-08-28T06:56:51.857Z,16.11
2018-08-28T06:57:55.833Z,16.39
2018-08-28T06:58:58.821Z,16.50
2018-08-28T07:00:01.886Z,16.65
2018-08-28T07:01:04.783Z,16.40
2018-08-28T07:02:07.851Z,16.49
2018-08-28T07:03:11.343Z,16.71
2018-08-28T07:04:14.703Z,16.79
2018-08-28T07:05:17.684Z,16.87
2018-08-28T07:06:20.564Z,17.02
2018-08-28T07:07:23.523Z,17.56
2018-08-28T07:08:27.335Z,17.55
2018-08-28T07:09:30.212Z,17.76
2018-08-28T07:10:33.605Z,17.39
2018-08-28T07:11:36.506Z,17.53
2018-08-28T07:12:39.440Z,17.47
2018-08-28T07:13:42.379Z,17.38
2018-08-28T07:14:45.300Z,17.64
2018-08-28T07:15:48.218Z,17.96
2018-08-28T07:16:52.166Z,18.24
2018-08-28T07:17:55.299Z,17.93
2018-08-28T07:19:02.025Z,18.08
2018-08-28T07:20:04.938Z,17.90
2018-08-28T07:21:07.835Z,17.81
2018-08-28T07:22:11.610Z,18.12
2018-08-28T07:23:15.639Z,18.38
2018-08-28T07:24:20.022Z,18.72
2018-08-28T07:25:23.577Z,18.82
2018-08-28T07:26:26.529Z,18.48
2018-08-28T07:27:29.419Z,18.62
2018-08-28T07:28:32.331Z,18.56
2018-08-28T07:29:35.549Z,18.52
2018-08-28T07:30:38.446Z,18.71
2018-08-28T07:31:41.380Z,19.05
2018-08-28T07:32:44.720Z,18.82
2018-08-28T07:33:47.641Z,18.90
2018-08-28T07:34:51.221Z,19.04
2018-08-28T07:35:54.726Z,19.25
2018-08-28T07:36:57.611Z,19.27
2018-08-28T07:38:00.506Z,19.35
2018-08-28T07:39:03.785Z,19.70
2018-08-28T07:40:06.853Z,19.62
2018-08-28T07:41:11.410Z,19.74
2018-08-28T07:42:14.772Z,19.85
2018-08-28T07:43:17.679Z,20.17
2018-08-28T07:44:20.642Z,20.04
2018-08-28T07:45:23.721Z,19.97
2018-08-28T07:46:26.651Z,20.27
2018-08-28T07:47:29.582Z,20.26
2018-08-28T07:48:32.837Z,20.45
2018-08-28T07:49:35.747Z,20.60
2018-08-28T07:50:38.659Z,20.96
2018-08-28T07:51:42.274Z,21.00
2018-08-28T07:52:45.253Z,21.01
2018-08-28T07:53:48.201Z,21.12
2018-08-28T07:54:51.126Z,21.40
2018-08-28T07:55:54.018Z,21.26
2018-08-28T07:56:56.968Z,20.95
2018-08-28T07:58:00.441Z,21.19
2018-08-28T07:59:03.476Z,20.96
2018-08-28T08:00:06.997Z,20.61
2018-08-28T08:01:11.986Z,20.39
2018-08-28T08:02:15.021Z,20.45
2018-08-28T08:03:21.850Z,20.54
2018-08-28T08:04:25.801Z,20.75
2018-08-28T08:05:29.567Z,20.60
2018-08-28T08:06:32.624Z,20.77
2018-08-28T08:07:36.330Z,20.54
2018-08-28T08:08:39.660Z,20.24
2018-08-28T08:09:42.641Z,20.24
2018-08-28T08:10:45.534Z,20.60
2018-08-28T08:11:48.429Z,20.80
2018-08-28T08:12:52.544Z,21.33
2018-08-28T08:13:55.777Z,21.41
2018-08-28T08:14:59.274Z,21.17
2018-08-28T08:16:02.242Z,21.12
2018-08-28T08:17:05.623Z,21.39
2018-08-28T08:18:08.538Z,21.26
2018-08-28T08:19:11.430Z,21.33
2018-08-28T08:20:15.620Z,20.88
2018-08-28T08:21:21.329Z,20.79
2018-08-28T08:22:27.916Z,20.70
2018-08-28T08:23:31.563Z,20.79
2018-08-28T08:24:34.591Z,20.52
2018-08-28T08:25:39.667Z,20.70
2018-08-28T08:26:43.861Z,20.78
2018-08-28T08:27:47.153Z,20.82
2018-08-28T08:28:51.510Z,20.85
2018-08-28T08:29:54.664Z,21.68
2018-08-28T08:30:57.582Z,22.35
2018-08-28T08:32:00.690Z,22.45
2018-08-28T08:33:04.487Z,23.04
2018-08-28T08:34:09.685Z,22.85
2018-08-28T08:35:12.942Z,23.08
2018-08-28T08:36:16.647Z,22.99
2018-08-28T08:37:20.470Z,23.55
2018-08-28T08:38:23.427Z,23.74
2018-08-28T08:39:27.373Z,23.24
2018-08-28T08:40:30.282Z,23.23
2018-08-28T08:41:33.207Z,23.48
2018-08-28T08:42:36.594Z,23.46
2018-08-28T08:43:39.978Z,23.46
2018-08-28T08:44:42.877Z,22.86
2018-08-28T08:45:46.229Z,22.69
2018-08-28T08:46:49.138Z,22.77
2018-08-28T08:47:53.768Z,22.45
2018-08-28T08:48:57.377Z,22.01
2018-08-28T08:50:00.332Z,21.87
2018-08-28T08:51:03.299Z,21.87
2018-08-28T08:52:07.456Z,21.84
2018-08-28T08:53:10.381Z,22.45
2018-08-28T08:54:14.859Z,23.20
2018-08-28T08:55:18.340Z,23.00
2018-08-28T08:56:21.669Z,23.37
2018-08-28T08:57:24.804Z,23.79
2018-08-28T08:58:28.247Z,24.03
2018-08-28T08:59:31.181Z,23.60
2018-08-28T09:00:34.087Z,23.42
2018-08-28T09:01:36.979Z,22.96
2018-08-28T09:02:40.450Z,22.75
2018-08-28T09:03:43.376Z,23.02
2018-08-28T09:04:48.388Z,23.25
2018-08-28T09:05:51.952Z,22.85
2018-08-28T09:06:55.522Z,22.78
2018-08-28T09:07:58.390Z,22.47
2018-08-28T09:09:02.725Z,22.85
2018-08-28T09:10:08.309Z,22.74
2018-08-28T09:11:11.612Z,22.18
2018-08-28T09:12:15.806Z,22.41
2018-08-28T09:13:19.123Z,22.30
2018-08-28T09:14:25.827Z,22.41
2018-08-28T09:15:28.782Z,23.11
2018-08-28T09:16:34.642Z,23.66
2018-08-28T09:17:38.657Z,23.73
2018-08-28T09:18:41.611Z,23.66
2018-08-28T09:19:45.414Z,23.02
2018-08-28T09:20:48.907Z,22.90
2018-08-28T09:21:51.796Z,22.51
2018-08-28T09:22:54.773Z,22.84
2018-08-28T09:23:58.066Z,23.34
2018-08-28T09:25:00.935Z,23.48
2018-08-28T09:26:03.884Z,23.57
2018-08-28T09:27:06.824Z,24.14
2018-08-28T09:28:10.273Z,24.54
2018-08-28T09:29:13.280Z,24.10
2018-08-28T09:30:16.523Z,24.22
2018-08-28T09:31:19.654Z,24.52
2018-08-28T09:32:24.423Z,24.91
2018-08-28T09:33:27.447Z,24.81
2018-08-28T09:34:30.666Z,24.71
2018-08-28T09:35:34.479Z,25.40
2018-08-28T09:36:39.792Z,25.07
2018-08-28T09:37:42.861Z,24.43
2018-08-28T09:38:46.416Z,23.86
2018-08-28T09:39:51.479Z,23.59
2018-08-28T09:40:54.402Z,23.55
2018-08-28T09:41:57.288Z,23.86
2018-08-28T09:43:01.978Z,23.66
2018-08-28T09:44:05.441Z,23.41
2018-08-28T09:45:08.339Z,22.84
2018-08-28T09:46:12.630Z,22.46
2018-08-28T09:47:15.537Z,22.93
2018-08-28T09:48:19.123Z,22.59
2018-08-28T09:49:23.166Z,23.10
2018-08-28T09:50:27.798Z,22.96
2018-08-28T09:51:30.772Z,22.99
2018-08-28T09:52:35.367Z,22.89
2018-08-28T09:53:38.478Z,22.29
2018-08-28T09:54:42.762Z,21.47
2018-08-28T09:55:46.244Z,21.08
2018-08-28T09:56:49.408Z,21.25
2018-08-28T09:57:53.351Z,21.95
2018-08-28T09:58:56.521Z,22.99
2018-08-28T10:00:01.687Z,23.38
2018-08-28T10:01:10.344Z,23.70
2018-08-28T10:02:14.604Z,24.18
2018-08-28T10:03:17.542Z,24.34
2018-08-28T10:04:20.567Z,23.46
2018-08-28T10:05:23.504Z,22.48
2018-08-28T10:06:27.303Z,23.04
2018-08-28T10:07:31.562Z,23.38
2018-08-28T10:08:35.209Z,22.98
2018-08-28T10:09:38.557Z,23.73
2018-08-28T10:10:42.442Z,24.05
2018-08-28T10:11:45.746Z,23.91
2018-08-28T10:12:48.648Z,23.65
2018-08-28T10:13:52.776Z,22.59
2018-08-28T10:14:55.813Z,22.76
2018-08-28T10:15:58.743Z,22.49
2018-08-28T10:17:03.155Z,23.06
2018-08-28T10:18:06.218Z,23.17
2018-08-28T10:19:09.290Z,23.07
2018-08-28T10:20:15.638Z,23.24
2018-08-28T10:21:19.081Z,23.93
2018-08-28T10:22:22.010Z,23.77
2018-08-28T10:23:27.088Z,24.17
2018-08-28T10:24:32.643Z,24.92
2018-08-28T10:25:35.806Z,23.76
2018-08-28T10:26:40.648Z,23.13
2018-08-28T10:27:45.529Z,23.01
2018-08-28T10:28:48.411Z,22.42
2018-08-28T10:29:51.349Z,21.40
2018-08-28T10:32:34.452Z,22.40
2018-08-28T10:33:37.827Z,22.33
2018-08-28T10:34:40.894Z,21.64
2018-08-28T10:35:44.117Z,22.09
2018-08-28T10:36:47.146Z,23.31
2018-08-28T10:37:52.231Z,23.20
2018-08-28T10:39:01.115Z,23.35
2018-08-28T10:40:05.856Z,23.14
2018-08-28T10:41:11.266Z,22.71
2018-08-28T10:42:15.246Z,23.02
2018-08-28T10:43:19.164Z,23.41
2018-08-28T10:44:24.747Z,23.11
2018-08-28T10:45:28.538Z,23.59
2018-08-28T10:46:31.600Z,23.99
2018-08-28T10:47:34.794Z,23.71
2018-08-28T10:48:37.761Z,23.15
2018-08-28T10:49:42.493Z,23.29
2018-08-28T10:50:45.375Z,23.08
2018-08-28T10:51:50.544Z,23.00
2018-08-28T10:52:53.803Z,23.18
2018-08-28T10:53:59.637Z,23.68
2018-08-28T10:55:03.152Z,24.72
2018-08-28T10:56:06.869Z,25.20
2018-08-28T10:57:17.461Z,24.96
2018-08-28T10:58:20.586Z,23.91
2018-08-28T10:59:26.422Z,23.76
2018-08-28T11:00:37.643Z,23.36
2018-08-28T11:01:43.656Z,22.51
2018-08-28T11:02:54.157Z,22.29
2018-08-28T11:04:03.325Z,23.61
2018-08-28T11:05:06.217Z,24.14
2018-08-28T11:06:09.301Z,24.81
2018-08-28T11:07:15.462Z,24.80
2018-08-28T11:08:18.391Z,24.59
2018-08-28T11:09:21.694Z,24.40
2018-08-28T11:10:25.382Z,24.19
2018-08-28T11:11:28.821Z,24.57
2018-08-28T11:12:32.266Z,25.26
2018-08-28T11:13:35.987Z,25.48
2018-08-28T11:14:39.629Z,25.67
2018-08-28T11:15:43.450Z,26.36
2018-08-28T11:16:46.370Z,25.61
2018-08-28T11:17:49.295Z,25.04
2018-08-28T11:18:52.390Z,24.62
2018-08-28T11:19:57.418Z,24.50
2018-08-28T11:21:00.963Z,24.66
2018-08-28T11:22:05.718Z,24.60
2018-08-28T11:23:08.743Z,24.24
2018-08-28T11:24:11.684Z,23.88
2018-08-28T11:25:14.598Z,23.44
2018-08-28T11:26:17.780Z,23.49
2018-08-28T11:27:20.743Z,24.19
2018-08-28T11:28:23.937Z,24.98
2018-08-28T11:29:26.860Z,25.32
2018-08-28T11:30:31.014Z,25.86
2018-08-28T11:31:33.912Z,25.67
2018-08-28T11:32:38.045Z,26.33
2018-08-28T11:33:40.938Z,26.25
2018-08-28T11:34:44.347Z,25.58
2018-08-28T11:35:48.255Z,25.73
2018-08-28T11:36:51.328Z,25.74
2018-08-28T11:37:55.369Z,23.60
2018-08-28T11:38:59.848Z,24.34
2018-08-28T11:40:03.399Z,25.22
2018-08-28T11:41:08.626Z,25.08
2018-08-28T11:42:11.630Z,24.82
2018-08-28T11:43:15.599Z,25.62
2018-08-28T11:44:19.293Z,25.61
2018-08-28T11:45:22.778Z,24.67
2018-08-28T11:46:25.697Z,25.39
2018-08-28T11:47:30.125Z,24.70
2018-08-28T11:48:33.048Z,24.35
2018-08-28T11:49:36.159Z,24.68
2018-08-28T11:50:39.572Z,25.50
2018-08-28T11:51:43.978Z,25.89
2018-08-28T11:52:49.904Z,26.38
2018-08-28T11:53:55.386Z,26.91
2018-08-28T11:54:58.346Z,26.58
2018-08-28T11:56:01.245Z,25.33
2018-08-28T11:57:04.651Z,23.80
2018-08-28T11:58:10.653Z,24.41
2018-08-28T11:59:15.310Z,24.73
2018-08-28T12:00:20.527Z,25.13
2018-08-28T12:01:26.485Z,25.75
2018-08-28T12:02:30.459Z,26.51
2018-08-28T12:03:34.514Z,26.75
2018-08-28T12:04:37.430Z,26.41
2018-08-28T12:05:41.673Z,25.77
2018-08-28T12:06:44.642Z,24.83
2018-08-28T12:07:47.887Z,24.24
2018-08-28T12:08:51.640Z,23.96
2018-08-28T12:09:55.145Z,23.52
2018-08-28T12:10:58.080Z,23.43
2018-08-28T12:12:01.064Z,23.26
2018-08-28T12:13:04.282Z,23.78
2018-08-28T12:14:07.367Z,24.96
2018-08-28T12:15:11.622Z,24.86
2018-08-28T12:16:14.793Z,24.51
2018-08-28T12:17:18.348Z,24.51
2018-08-28T12:18:21.889Z,24.30
2018-08-28T12:19:25.276Z,24.21
2018-08-28T12:20:28.281Z,23.62
2018-08-28T12:21:31.205Z,24.15
2018-08-28T12:22:34.118Z,24.55
2018-08-28T12:23:40.009Z,24.36
2018-08-28T12:24:42.923Z,23.86
2018-08-28T12:25:46.144Z,23.13
2018-08-28T12:26:49.149Z,22.71
2018-08-28T12:27:52.869Z,22.89
2018-08-28T12:28:55.777Z,23.45
2018-08-28T12:29:58.662Z,24.06
2018-08-28T12:31:01.560Z,24.65
2018-08-28T12:32:04.850Z,25.39
2018-08-28T12:33:07.745Z,26.12
2018-08-28T12:34:10.747Z,26.62
2018-08-28T12:35:14.209Z,26.64
2018-08-28T12:36:17.105Z,26.20
2018-08-28T12:37:22.077Z,25.70
2018-08-28T12:38:26.858Z,25.82
2018-08-28T12:39:30.363Z,25.56
2018-08-28T12:40:33.262Z,25.09
2018-08-28T12:41:38.190Z,25.41
2018-08-28T12:42:42.181Z,26.04
2018-08-28T12:43:45.108Z,26.75
2018-08-28T12:44:49.543Z,26.89
2018-08-28T12:45:52.431Z,25.83
2018-08-28T12:46:55.622Z,25.46
2018-08-28T12:47:58.571Z,25.21
2018-08-28T12:49:03.136Z,25.48
2018-08-28T12:50:06.277Z,25.09
2018-08-28T12:51:13.938Z,24.77
2018-08-28T12:52:18.121Z,24.16
2018-08-28T12:53:23.072Z,24.05
2018-08-28T12:54:26.014Z,24.24
2018-08-28T12:55:28.961Z,24.22
2018-08-28T12:56:32.627Z,24.73
2018-08-28T12:57:35.845Z,24.95
2018-08-28T12:58:39.318Z,24.38
2018-08-28T12:59:43.952Z,25.03
2018-08-28T13:00:47.942Z,25.18
2018-08-28T13:01:50.798Z,24.95
2018-08-28T13:02:54.797Z,25.43
2018-08-28T13:03:59.633Z,25.35
2018-08-28T13:05:03.588Z,25.12
2018-08-28T13:06:09.485Z,24.21
2018-08-28T13:07:13.901Z,24.30
2018-08-28T13:08:19.341Z,24.13
2018-08-28T13:09:22.394Z,24.83
2018-08-28T13:10:26.758Z,26.03
2018-08-28T13:11:36.505Z,26.84
2018-08-28T13:12:39.423Z,25.94
2018-08-28T13:13:43.300Z,25.80
2018-08-28T13:14:49.301Z,25.87
2018-08-28T13:15:52.716Z,26.09
2018-08-28T13:16:55.999Z,26.49
2018-08-28T13:17:58.936Z,26.57
2018-08-28T13:19:01.840Z,27.08
2018-08-28T13:20:09.461Z,27.37
2018-08-28T13:21:12.564Z,26.89
2018-08-28T13:22:15.463Z,25.77
2018-08-28T13:23:18.785Z,25.35
2018-08-28T13:24:22.496Z,25.03
2018-08-28T13:25:25.433Z,24.47
2018-08-28T13:26:28.330Z,24.14
2018-08-28T13:27:32.036Z,23.93
2018-08-28T13:28:35.647Z,23.96
2018-08-28T13:29:40.297Z,24.39
2018-08-28T13:30:43.258Z,25.10
2018-08-28T13:31:48.501Z,25.64
2018-08-28T13:32:51.382Z,26.13
2018-08-28T13:33:55.327Z,25.50
2018-08-28T13:34:59.386Z,24.61
2018-08-28T13:36:02.786Z,24.78
2018-08-28T13:38:16.036Z,26.40
2018-08-28T13:39:18.978Z,26.83
2018-08-28T13:40:21.894Z,26.48
2018-08-28T13:41:27.402Z,25.35
2018-08-28T13:42:31.582Z,25.30